Tiempo atmosférico en la estación meteorológica de Jalance, València/Valencia (372 m.)



Fecha
DESCASC
Temp. máxima en grados centígrados (hora)
DESCASC
Temp. mínima en grados centígrados (hora)
DESCASC
Temp. media en grados centígrados
DESCASC
Racha de viento máxima en m/sg (hora)
DESCASC
Velocidad máxima media en intervalos de 10 minutos(hora)
DESCASC
Precipitaciones diarias en mm
DESCASC
Precipitaciones de 00:00 a 06:00 en mm
DESCASC
Precipitaciones de 06:00 a 12:00 en mm
DESCASC
Precipitaciones de 12:00 a 18:00 en mm
DESCASC
Precipitaciones de 18:00 a 24:00 en mm
DESCASC
28-02-2021 13.9 (13:50) 6.4 (00:40) 10.1 7.5 (15:00) 3.89 (11:20) 0 0 0 0 0
27-02-2021 17.5 (15:30) 2.8 (07:30) 10.1 6.39 (15:30) 3.33 (12:50) 0 0 0 0 0
26-02-2021 15.1 (16:20) 6.2 (23:59) 10.7 5.28 (11:30) 2.78 (15:00) 0 0 0 0 0
25-02-2021 16.2 (15:30) 3.2 (00:00) 9.7 7.22 (15:40) 3.33 (16:00) 0 0 0 0 0
24-02-2021 16.1 (16:50) 4.1 (00:00) 10.1 5 (16:30) 2.5 (17:00) 0 0 0 0 0
23-02-2021 15.3 (16:10) 6.5 (00:00) 10.9 5.56 (13:20) 3.33 (13:50) 0.4 0.4 0 0 0
22-02-2021 12.3 (16:10) 8.1 (00:00) 10.2 11.11 (12:20) 4.17 (14:00) 0.2 0.2 0 0 0
21-02-2021 13.2 (16:00) 8.5 (00:00) 10.8 11.39 (23:10) 3.89 (23:10) 3.4 0 0 0 3.4
20-02-2021 17 (16:00) 5.3 (00:00) 11.2 8.06 (13:50) 5.28 (13:50) 0 0 0 0 0
19-02-2021 23.7 (15:40) -0.3 (00:00) 11.7 7.22 (17:50) 4.17 (18:00) 0 0 0 0 0
18-02-2021 21.6 (16:20) 2.1 (00:00) 11.9 9.44 (15:40) 3.61 (15:40) 0 0 0 0 0
17-02-2021 22.5 (16:30) -0.4 (00:00) 11 4.44 (18:10) 2.78 (18:30) 0 0 0 0 0
16-02-2021 20.7 (16:40) 0.7 (00:00) 10.7 5.83 (15:50) 2.22 (16:20) 0 0 0 0 0
15-02-2021 14.3 (17:10) 6.2 (00:00) 10.3 6.11 (16:00) 3.06 (17:10) 0.2 0 0.2 0 0
14-02-2021 15.7 (16:10) 0.3 (00:00) 8 6.94 (14:50) 3.33 (13:10) 0 0 0 0 0
13-02-2021 18 (16:40) 8 (00:00) 13 12.5 (06:40) 6.39 (03:40) 0 0 0 0 0
12-02-2021 17 (16:20) 9.4 (00:00) 13.2 13.06 (16:10) 5.83 (16:10) 0.6 0 0.4 0.2 0
11-02-2021 16.7 (15:40) 8.2 (00:00) 12.5 9.44 (15:10) 4.44 (11:20) 0 0 0 0 0
10-02-2021 16.2 (17:00) 6.8 (00:00) 11.5 16.39 (13:40) 6.39 (13:40) 2.6 2.2 0.4 0 0
09-02-2021 16.9 (16:20) 8.8 (00:00) 12.8 14.72 (01:00) 6.94 (01:00) 2.8 0 0 0 2.8
08-02-2021 14.5 (14:30) 8.5 (00:00) 11.5 16.94 (02:10) 8.61 (01:50) 5.6 0 3 2.6 0
07-02-2021 13.7 (13:10) 9.1 (00:00) 11.4 14.72 (21:20) 6.67 (21:20) 0 0 0 0 0
06-02-2021 16.1 (16:00) 6.6 (00:00) 11.4 9.72 (15:30) 4.72 (16:40) 0 0 0 0 0
05-02-2021 13.3 (13:30) 7 (00:00) 10.2 8.06 (14:30) 3.06 (14:40) 0 0 0 0 0
04-02-2021 19.6 (14:20) 5 (00:00) 12.3 6.67 (17:50) 3.61 (14:50) 0 0 0 0 0
03-02-2021 17.1 (15:20) 7.9 (00:00) 12.5 7.5 (01:20) 3.61 (01:20) 0 0 0 0 0
02-02-2021 18.3 (16:20) 7.9 (23:50) 13.1 17.22 (15:50) 5 (15:10) 0 0 0 0 0
01-02-2021 18 (15:10) 12.4 (00:00) 15.2 24.17 (13:50) 12.78 (08:30) 0 0 0 0 0

Gráficas

Temp. máximas Temp. mínimas Temp. medias Precipitaciones Rachas de viento máximas Velocidades máximas media en intervalos de 10 minutos

Datos horarios

Fecha y hora oficial Temperatura (ºC) Velocidad del viento (km/h) Dirección del viento Racha (km/h) Dirección de racha Precipitación (mm) Presión (hPa) Tendencia (hPa) Humedad (%)
2021-03-02 23:00:00 11.4 2 Norte 13 Noroeste 0 -- -- 86
2021-03-02 22:00:00 11 3 Noroeste 6 Noroeste 0 -- -- 88
2021-03-02 21:00:00 11.2 5 Norte 13 Noroeste 0 -- -- 87
2021-03-02 20:00:00 11.3 2 Noroeste 9 Nordeste 0 -- -- 87
2021-03-02 19:00:00 11.5 4 Norte 10 Norte 0 -- -- 86
2021-03-02 18:00:00 11.4 4 Norte 10 Noroeste 0 -- -- 87
2021-03-02 17:00:00 11.2 5 Norte 17 Norte 0 -- -- 88
2021-03-02 16:00:00 11.1 7 Norte 25 Noroeste 0 -- -- 88
2021-03-02 15:00:00 11.2 7 Norte 20 Norte 0 -- -- 87
2021-03-02 14:00:00 11.3 5 Norte 15 Norte 0 -- -- 87
2021-03-02 13:00:00 11 8 Norte 17 Norte 0 -- -- 88
2021-03-02 12:00:00 10.7 8 Norte 19 Norte 0 -- -- 89
2021-03-02 11:00:00 10.5 7 Norte 18 Norte 0 -- -- 89
2021-03-02 10:00:00 10.2 5 Norte 14 Norte 0 -- -- 89
2021-03-02 09:00:00 10.1 4 Noroeste 11 Oeste 0 -- -- 87
2021-03-02 08:00:00 10 4 Noroeste 16 Norte 0 -- -- 86
2021-03-02 07:00:00 10 6 Norte 17 Norte 0 -- -- 88
2021-03-02 06:00:00 10 6 Norte 26 Norte 0 -- -- 88
2021-03-02 05:00:00 9.7 8 Norte 21 Norte 0 -- -- 90
2021-03-02 04:00:00 9.8 9 Norte 17 Norte 0.2 -- -- 91
2021-03-02 03:00:00 10 6 Norte 15 Norte 0 -- -- 89
2021-03-02 02:00:00 10.7 5 Norte 32 Norte 0 -- -- 82
2021-03-02 01:00:00 10.7 6 Norte 17 Norte 0 -- -- 81
2021-03-02 00:00:00 10.8 3 Nordeste 21 Nordeste 0 -- -- 80
2021-03-01 23:00:00 10.5 6 Norte 27 Norte 0 -- -- 80
2021-03-01 22:00:00 10.2 7 Norte 23 Nordeste 0 -- -- 85
2021-03-01 21:00:00 10.5 9 Norte 18 Este 0 -- -- 81
2021-03-01 20:00:00 10.3 6 Nordeste 16 Nordeste 0 -- -- 84
2021-03-01 19:00:00 10.4 7 Norte 19 Norte 0 -- -- 82
2021-03-01 18:00:00 10.7 3 Norte 20 Norte 0 -- -- 79
2021-03-01 17:00:00 11.3 7 Nordeste 19 Nordeste 0 -- -- 75
2021-03-01 16:00:00 11.7 4 Este 21 Sudeste 0 -- -- 72
2021-03-01 15:00:00 11.9 8 Sudeste 25 Sudeste 0 -- -- 70
2021-03-01 14:00:00 11.8 9 Este 27 Este 0 -- -- 71
2021-03-01 13:00:00 11.5 14 Este 29 Sudeste 0 -- -- 73
2021-03-01 12:00:00 10.9 5 Norte 16 Este 0 -- -- 79
2021-03-01 11:00:00 11.1 9 Este 32 Este 0 -- -- 73
2021-03-01 10:00:00 10.6 6 Este 21 Norte 0 -- -- 78
2021-03-01 09:00:00 10.7 4 Este 23 Sudeste 0 -- -- 77
2021-03-01 08:00:00 10.5 6 Este 20 Este 0 -- -- 77
2021-03-01 07:00:00 10.4 8 Este 24 Sudeste 0 -- -- 79
2021-03-01 06:00:00 9.9 8 Norte 18 Norte 0 -- -- 85
2021-03-01 05:00:00 9.5 5 Norte 13 Noroeste 0 -- -- 89
2021-03-01 04:00:00 9.3 7 Norte 17 Norte 0 -- -- 89
2021-03-01 03:00:00 9.4 9 Norte 16 Noroeste 0 -- -- 87
2021-03-01 02:00:00 9.9 5 Norte 15 Nordeste 0 -- -- 82
2021-03-01 01:00:00 9.7 9 Norte 18 Norte 0 -- -- 83
2021-03-01 00:00:00 10 7 Norte 15 Norte 0 -- -- 81
2021-02-28 23:00:00 10.3 4 Este 13 Este 0 -- -- 74
2021-02-28 22:00:00 10.1 3 Norte 8 Este 0 -- -- 74
2021-02-28 21:00:00 10 6 Este 16 Este 0 -- -- 74
2021-02-28 20:00:00 10.6 3 Nordeste 20 Este 0 -- -- 74
2021-02-28 19:00:00 11.3 4 Este 24 Este 0 -- -- 70
2021-02-28 18:00:00 12.1 8 Sudeste 20 Sudeste 0 -- -- 64
2021-02-28 17:00:00 12.6 5 Sudeste 16 Sudeste 0 -- -- 66
2021-02-28 16:00:00 12.3 9 Sudeste 27 Sudeste 0 -- -- 68
2021-02-28 15:00:00 13.1 11 Sudeste 27 Sudeste 0 -- -- 61
2021-02-28 14:00:00 13.7 12 Sudeste 23 Sudeste 0 -- -- 58
2021-02-28 13:00:00 13.2 10 Sudeste 23 Sudeste 0 -- -- 58
2021-02-28 12:00:00 12.2 10 Sudeste 24 Sudeste 0 -- -- 66
2021-02-28 11:00:00 10.8 6 Este 17 Este 0 -- -- 75
2021-02-28 10:00:00 8.6 0 Calma 4 Este 0 -- -- 88
2021-02-28 09:00:00 7.3 0 Calma 3 Sudeste 0 -- -- 90
2021-02-28 08:00:00 7.1 0 Calma 3 Sudoeste 0 -- -- 88
2021-02-28 07:00:00 7.5 0 Calma 3 Nordeste 0 -- -- 88
2021-02-28 06:00:00 7.8 0 Calma 4 Norte 0 -- -- 84
2021-02-28 05:00:00 8 0 Calma 4 Noroeste 0 -- -- 86
2021-02-28 04:00:00 7.9 0 Calma 4 Norte 0 -- -- 85
2021-02-28 03:00:00 7.5 0 Calma 4 Sudeste 0 -- -- 85
2021-02-28 02:00:00 7.6 2 Norte 5 Norte 0 -- -- 85
2021-02-28 01:00:00 6.5 0 Calma 5 Sudeste 0 -- -- 86
2021-02-28 00:00:00 6.8 4 Este 11 Nordeste 0 -- -- 85
2021-02-27 23:00:00 8.5 6 Noroeste 16 Noroeste 0 -- -- 85
2021-02-27 22:00:00 9.3 7 Noroeste 13 Noroeste 0 -- -- 82
2021-02-27 21:00:00 10.2 6 Noroeste 14 Noroeste 0 -- -- 74
2021-02-27 20:00:00 11.5 7 Noroeste 14 Norte 0 -- -- 65
2021-02-27 19:00:00 13.7 5 Norte 16 Norte 0 -- -- 55
2021-02-27 18:00:00 15.7 8 Norte 15 Norte 0 -- -- 49
2021-02-27 17:00:00 17.3 8 Nordeste 22 Noroeste 0 -- -- 44
2021-02-27 16:00:00 17.4 9 Nordeste 23 Norte 0 -- -- 46
2021-02-27 15:00:00 17.2 10 Norte 23 Norte 0 -- -- 48
2021-02-27 14:00:00 16.2 10 Norte 21 Norte 0 -- -- 52
2021-02-27 13:00:00 14.5 11 Norte 19 Noroeste 0 -- -- 62
2021-02-27 12:00:00 11.9 3 Noroeste 13 Norte 0 -- -- 76
2021-02-27 11:00:00 6.9 3 Sudeste 5 Sudeste 0 -- -- 91
2021-02-27 10:00:00 4.1 0 Calma 3 Este 0 -- -- 97
2021-02-27 09:00:00 3.1 0 Calma 4 Sur 0 -- -- 96
2021-02-27 08:00:00 2.9 0 Calma 4 Sur 0 -- -- 96
2021-02-27 07:00:00 3 0 Calma 4 Noroeste 0 -- -- 96
2021-02-27 06:00:00 3.2 0 Calma 6 Norte 0 -- -- 95
2021-02-27 05:00:00 3.3 4 Norte 13 Norte 0 -- -- 95
2021-02-27 04:00:00 3.4 0 Calma 2 Noroeste 0 -- -- 93
2021-02-27 03:00:00 3.9 0 Calma 2 Este 0 -- -- 93
2021-02-27 02:00:00 4 0 Calma 2 Este 0 -- -- 91
2021-02-27 01:00:00 4.9 0 Calma 3 Norte 0 -- -- 89
2021-02-27 00:00:00 6.2 0 Calma 0 Calma 0 -- -- 88
2021-02-26 23:00:00 6.4 0 Calma 0 Calma 0 -- -- 89
2021-02-26 22:00:00 7 0 Calma 0 Calma 0 -- -- 86
2021-02-26 21:00:00 7.6 0 Calma 0 Calma 0 -- -- 83
2021-02-26 20:00:00 9.2 0 Calma 5 Sudeste 0 -- -- 77
2021-02-26 19:00:00 11.7 4 Sudeste 13 Sudeste 0 -- -- 69
2021-02-26 18:00:00 13.3 6 Sudeste 16 Sudeste 0 -- -- 63
2021-02-26 17:00:00 14.9 9 Sudeste 17 Sudeste 0 -- -- 58
2021-02-26 16:00:00 14.6 7 Sur 17 Sur 0 -- -- 60
2021-02-26 15:00:00 14 10 Este 19 Este 0 -- -- 64
2021-02-26 14:00:00 13.2 4 Este 16 Este 0 -- -- 66
2021-02-26 13:00:00 13.2 9 Este 17 Sudeste 0 -- -- 64
2021-02-26 12:00:00 13 8 Este 19 Este 0 -- -- 65
2021-02-26 11:00:00 12.4 7 Este 19 Este 0 -- -- 68
2021-02-26 10:00:00 11.6 9 Este 16 Sudeste 0 -- -- 72
2021-02-26 09:00:00 11.2 3 Este 10 Norte 0 -- -- 76
2021-02-26 08:00:00 10.6 0 Calma 10 Noroeste 0 -- -- 79
2021-02-26 07:00:00 10.5 3 Norte 9 Norte 0 -- -- 80
2021-02-26 06:00:00 10.9 2 Nordeste 11 Norte 0 -- -- 75
2021-02-26 05:00:00 10.6 5 Norte 9 Nordeste 0 -- -- 79
2021-02-26 04:00:00 10.6 5 Norte 8 Norte 0 -- -- 80
2021-02-26 03:00:00 10.6 5 Norte 10 Norte 0 -- -- 80
2021-02-26 02:00:00 10.7 3 Norte 12 Norte 0 -- -- 80
2021-02-26 01:00:00 10.6 2 Nordeste 17 Este 0 -- -- 79
2021-02-26 00:00:00 11 8 Norte 16 Norte 0 -- -- 81
2021-02-25 23:00:00 11.5 8 Norte 11 Norte 0 -- -- 81
2021-02-25 22:00:00 11.9 2 Sur 9 Este 0 -- -- 77
2021-02-25 21:00:00 11.7 0 Calma 9 Sudeste 0 -- -- 79
2021-02-25 20:00:00 12.6 4 Sudeste 13 Sudeste 0 -- -- 76
2021-02-25 19:00:00 13.3 5 Nordeste 18 Nordeste 0 -- -- 74
2021-02-25 18:00:00 14.4 9 Norte 21 Norte 0 -- -- 69
2021-02-25 17:00:00 15 8 Norte 22 Nordeste 0 -- -- 66
2021-02-25 16:00:00 16 12 Norte 26 Nordeste 0 -- -- 61
2021-02-25 15:00:00 16.1 8 Norte 21 Norte 0 -- -- 60
2021-02-25 14:00:00 15.3 9 Nordeste 16 Norte 0 -- -- 62
2021-02-25 13:00:00 14 8 Nordeste 15 Nordeste 0 -- -- 68
2021-02-25 12:00:00 13.2 5 Nordeste 11 Nordeste 0 -- -- 70
2021-02-25 11:00:00 9.2 2 Este 4 Este 0 -- -- 85
2021-02-25 10:00:00 7.4 0 Calma 4 Este 0 -- -- 91
2021-02-25 09:00:00 5.4 0 Calma 6 Sudeste 0 -- -- 97
2021-02-25 08:00:00 3.7 0 Calma 3 Oeste 0 -- -- 96
2021-02-25 07:00:00 4.4 0 Calma 2 Norte 0 -- -- 96
2021-02-25 06:00:00 4 0 Calma 3 Sudeste 0 -- -- 96
2021-02-25 05:00:00 3.3 0 Calma 3 Sudeste 0 -- -- 96
2021-02-25 04:00:00 3.5 0 Calma 2 Sudeste 0 -- -- 95
2021-02-25 03:00:00 4.4 0 Calma 4 Este 0 -- -- 94
2021-02-25 02:00:00 5.4 0 Calma 3 Sudeste 0 -- -- 95
2021-02-25 01:00:00 5.3 0 Calma 3 Sudeste 0 -- -- 94
2021-02-25 00:00:00 6.2 0 Calma 3 Noroeste 0 -- -- 93
2021-02-24 23:00:00 6.7 0 Calma 3 Sudeste 0 -- -- 92
2021-02-24 22:00:00 8 0 Calma 4 Sudoeste 0 -- -- 90
2021-02-24 21:00:00 9.2 2 Noroeste 4 Sudoeste 0 -- -- 88
2021-02-24 20:00:00 10.7 2 Sudoeste 6 Noroeste 0 -- -- 82
2021-02-24 19:00:00 12.5 0 Calma 9 Sudeste 0 -- -- 74
2021-02-24 18:00:00 14.6 0 Calma 15 Sudeste 0 -- -- 67
2021-02-24 17:00:00 15.6 9 Nordeste 18 Sudeste 0 -- -- 64
2021-02-24 16:00:00 15.2 7 Sudeste 13 Sudeste 0 -- -- 65
2021-02-24 15:00:00 14.4 6 Norte 13 Norte 0 -- -- 75
2021-02-24 14:00:00 13.3 4 Norte 12 Noroeste 0 -- -- 80
2021-02-24 13:00:00 12.5 3 Norte 7 Norte 0 -- -- 85
2021-02-24 12:00:00 10.8 0 Calma 5 Sudeste 0 -- -- 88
2021-02-24 11:00:00 10 0 Calma 3 Nordeste 0 -- -- 86
2021-02-24 10:00:00 8.5 2 Sudeste 5 Sudeste 0 -- -- 89
2021-02-24 09:00:00 7.4 0 Calma 3 Este 0 -- -- 93
2021-02-24 08:00:00 6.9 0 Calma 3 Sudeste 0 -- -- 94
2021-02-24 07:00:00 6.5 0 Calma 2 Sur 0 -- -- 94
2021-02-24 06:00:00 6.1 0 Calma 3 Noroeste 0 -- -- 95
2021-02-24 05:00:00 5.5 0 Calma 4 Sur 0 -- -- 95
2021-02-24 04:00:00 5 0 Calma 2 Sudeste 0 -- -- 95
2021-02-24 03:00:00 4.1 0 Calma 3 Noroeste 0 -- -- 93
2021-02-24 02:00:00 4.8 0 Calma 2 Sudeste 0 -- -- 92
2021-02-24 01:00:00 5.7 0 Calma 3 Sudeste 0 -- -- 91
2021-02-24 00:00:00 6.5 0 Calma 3 Sudeste 0 -- -- 90
2021-02-23 23:00:00 7.3 2 Sudeste 10 Noroeste 0 -- -- 88
2021-02-23 22:00:00 8.3 0 Calma 5 Sudeste 0 -- -- 85
2021-02-23 21:00:00 9.2 0 Calma 10 Sudoeste 0 -- -- 81
2021-02-23 20:00:00 10.3 0 Calma 4 Sudoeste 0 -- -- 76
2021-02-23 19:00:00 12.2 2 Norte 12 Este 0 -- -- 67
2021-02-23 18:00:00 13.9 4 Nordeste 14 Norte 0 -- -- 59
2021-02-23 17:00:00 14.7 6 Nordeste 16 Sudeste 0 -- -- 55
2021-02-23 16:00:00 15.2 4 Este 14 Este 0 -- -- 55
2021-02-23 15:00:00 14.1 9 Norte 15 Norte 0 -- -- 54
2021-02-23 14:00:00 13.6 6 Nordeste 20 Norte 0 -- -- 59
2021-02-23 13:00:00 13.4 5 Sudeste 16 Norte 0 -- -- 64
2021-02-23 12:00:00 11.9 7 Norte 15 Noroeste 0 -- -- 73
2021-02-23 11:00:00 10.8 6 Norte 12 Nordeste 0 -- -- 77
2021-02-23 10:00:00 9.7 5 Norte 9 Norte 0 -- -- 84
2021-02-23 09:00:00 8.3 2 Norte 6 Norte 0 -- -- 94
2021-02-23 08:00:00 8.1 0 Calma 3 Sudeste 0 -- -- 93
2021-02-23 07:00:00 8.1 0 Calma 4 Noroeste 0 -- -- 93
2021-02-23 06:00:00 8.4 0 Calma 4 Oeste 0 -- -- 92
2021-02-23 05:00:00 8.5 0 Calma 3 Norte 0.4 -- -- 91
2021-02-23 04:00:00 8.9 4 Noroeste 9 Norte 0 -- -- 86
2021-02-23 03:00:00 8.7 0 Calma 4 Norte 0 -- -- 87
2021-02-23 02:00:00 8.8 0 Calma 4 Noroeste 0 -- -- 86
2021-02-23 01:00:00 8.8 0 Calma 3 Sudeste 0 -- -- 85
2021-02-23 00:00:00 9 0 Calma 5 Sudoeste 0 -- -- 83
2021-02-22 23:00:00 9.2 0 Calma 8 Norte 0 -- -- 82
2021-02-22 22:00:00 9.5 2 Nordeste 14 Este 0 -- -- 79
2021-02-22 21:00:00 10.5 5 Sudeste 13 Norte 0 -- -- 69
2021-02-22 20:00:00 10.8 4 Noroeste 18 Oeste 0 -- -- 67
2021-02-22 19:00:00 10.8 8 Noroeste 20 Norte 0 -- -- 65
2021-02-22 18:00:00 11.3 10 Noroeste 22 Noroeste 0 -- -- 64
2021-02-22 17:00:00 11.8 6 Oeste 35 Noroeste 0 -- -- 62
2021-02-22 16:00:00 12 14 Noroeste 32 Noroeste 0 -- -- 60
2021-02-22 15:00:00 11.3 11 Noroeste 32 Noroeste 0 -- -- 61
2021-02-22 14:00:00 10.8 15 Noroeste 33 Noroeste 0 -- -- 64
2021-02-22 13:00:00 11.2 14 Noroeste 40 Noroeste 0 -- -- 64
2021-02-22 12:00:00 9.8 12 Noroeste 29 Oeste 0 -- -- 67
2021-02-22 11:00:00 10.3 5 Sudeste 26 Noroeste 0 -- -- 69
2021-02-22 10:00:00 9.3 7 Norte 27 Noroeste 0 -- -- 70
2021-02-22 09:00:00 8.7 7 Noroeste 21 Noroeste 0 -- -- 74
2021-02-22 08:00:00 8.4 4 Sudeste 14 Este 0 -- -- 79
2021-02-22 07:00:00 8.2 3 Sudeste 13 Sudeste 0 -- -- 79
2021-02-22 06:00:00 8.3 4 Sudeste 22 Oeste 0 -- -- 80
2021-02-22 05:00:00 8.5 3 Norte 29 Sudoeste 0 -- -- 77
2021-02-22 04:00:00 8.7 8 Norte 34 Noroeste 0.2 -- -- 80
2021-02-22 03:00:00 8.4 7 Este 24 Oeste 0 -- -- 83
2021-02-22 02:00:00 8.2 4 Sudeste 18 Noroeste 0 -- -- 93
2021-02-22 01:00:00 8.3 3 Sur 9 Norte 0 -- -- 91
2021-02-22 00:00:00 8.9 12 Norte 41 Noroeste 3.4 -- -- 82
2021-02-21 23:00:00 11.7 6 Oeste 31 Noroeste 0 -- -- 77
2021-02-21 22:00:00 12.2 5 Noroeste 11 Norte 0 -- -- 84
2021-02-21 21:00:00 12.3 6 Noroeste 8 Norte 0 -- -- 83
2021-02-21 20:00:00 12.6 2 Sudeste 18 Norte 0 -- -- 80
2021-02-21 19:00:00 12.6 11 Norte 22 Nordeste 0 -- -- 82
2021-02-21 18:00:00 12.8 12 Norte 27 Nordeste 0 -- -- 81
2021-02-21 17:00:00 13.1 9 Norte 22 Nordeste 0 -- -- 79
2021-02-21 16:00:00 13.2 8 Norte 22 Norte 0 -- -- 79
2021-02-21 15:00:00 12.4 12 Norte 23 Norte 0 -- -- 80
2021-02-21 14:00:00 11.9 10 Norte 23 Norte 0 -- -- 81
2021-02-21 13:00:00 11.7 6 Norte 29 Norte 0 -- -- 80
2021-02-21 12:00:00 10.3 7 Norte 26 Nordeste 0 -- -- 84
2021-02-21 11:00:00 9.5 10 Norte 22 Norte 0 -- -- 89
2021-02-21 10:00:00 9.4 9 Norte 23 Norte 0 -- -- 89
2021-02-21 09:00:00 9.8 8 Norte 21 Norte 0 -- -- 85
2021-02-21 08:00:00 9.9 9 Nordeste 22 Noroeste 0 -- -- 82
2021-02-21 07:00:00 9.5 4 Nordeste 17 Este 0 -- -- 83
2021-02-21 06:00:00 9.7 6 Norte 17 Noroeste 0 -- -- 83
2021-02-21 05:00:00 9.7 9 Norte 16 Norte 0 -- -- 85
2021-02-21 04:00:00 10.1 9 Norte 18 Nordeste 0 -- -- 85
2021-02-21 03:00:00 11 4 Este 15 Nordeste 0 -- -- 79
2021-02-21 02:00:00 10.9 6 Norte 12 Norte 0 -- -- 80
2021-02-21 01:00:00 11 4 Norte 14 Este 0 -- -- 79
2021-02-21 00:00:00 10.9 7 Este 21 Nordeste 0 -- -- 78
2021-02-20 23:00:00 10.6 0 Calma 15 Sudeste 0 -- -- 78
2021-02-20 22:00:00 10.5 3 Sudeste 13 Nordeste 0 -- -- 79
2021-02-20 21:00:00 10.4 3 Este 12 Este 0 -- -- 78
2021-02-20 20:00:00 10.9 4 Este 13 Este 0 -- -- 76
2021-02-20 19:00:00 11.7 4 Este 20 Este 0 -- -- 73
2021-02-20 18:00:00 13.9 7 Este 26 Este 0 -- -- 65
2021-02-20 17:00:00 15.7 10 Nordeste 24 Sudeste 0 -- -- 57
2021-02-20 16:00:00 17 13 Este 24 Este 0 -- -- 54
2021-02-20 15:00:00 15.8 13 Norte 27 Norte 0 -- -- 57
2021-02-20 14:00:00 15.5 15 Norte 29 Noroeste 0 -- -- 59
2021-02-20 13:00:00 14.7 13 Noroeste 26 Noroeste 0 -- -- 61
2021-02-20 12:00:00 12.4 16 Norte 26 Norte 0 -- -- 68
2021-02-20 11:00:00 10.5 12 Norte 19 Norte 0 -- -- 74
2021-02-20 10:00:00 8.2 8 Norte 17 Norte 0 -- -- 81
2021-02-20 09:00:00 5.5 3 Este 6 Este 0 -- -- 91
2021-02-20 08:00:00 5.6 0 Calma 5 Este 0 -- -- 91
2021-02-20 07:00:00 5.9 3 Noroeste 10 Oeste 0 -- -- 91
2021-02-20 06:00:00 6.1 0 Calma 8 Noroeste 0 -- -- 90
2021-02-20 05:00:00 5.4 0 Calma 10 Noroeste 0 -- -- 89
2021-02-20 04:00:00 6 2 Norte 13 Noroeste 0 -- -- 89
2021-02-20 03:00:00 7 6 Noroeste 16 Norte 0 -- -- 92
2021-02-20 02:00:00 6.3 6 Norte 12 Norte 0 -- -- 93
2021-02-20 01:00:00 6.1 0 Calma 9 Norte 0 -- -- 81
2021-02-20 00:00:00 7.4 0 Calma 8 Norte 0 -- -- 74
2021-02-19 23:00:00 8.4 4 Norte 9 Noroeste 0 -- -- 70
2021-02-19 22:00:00 8.4 0 Calma 2 Norte 0 -- -- 74
2021-02-19 21:00:00 10.1 0 Calma 6 Sudeste 0 -- -- 73
2021-02-19 20:00:00 12.7 2 Noroeste 13 Noroeste 0 -- -- 64
2021-02-19 19:00:00 15.9 9 Noroeste 22 Noroeste 0 -- -- 57
2021-02-19 18:00:00 18.1 15 Noroeste 26 Noroeste 0 -- -- 48
2021-02-19 17:00:00 21.9 8 Norte 19 Noroeste 0 -- -- 33
2021-02-19 16:00:00 23.4 6 Norte 20 Sudoeste 0 -- -- 22
2021-02-19 15:00:00 22.7 6 Norte 14 Noroeste 0 -- -- 29
2021-02-19 14:00:00 21 4 Norte 12 Norte 0 -- -- 35
2021-02-19 13:00:00 17.5 3 Este 10 Nordeste 0 -- -- 41
2021-02-19 12:00:00 13.8 3 Norte 8 Noroeste 0 -- -- 53
2021-02-19 11:00:00 10.2 3 Este 6 Este 0 -- -- 59
2021-02-19 10:00:00 5.9 0 Calma 3 Este 0 -- -- 75
2021-02-19 09:00:00 1.8 0 Calma 2 Este 0 -- -- 93
2021-02-19 08:00:00 -0.2 0 Calma 0 Calma 0 -- -- 91
2021-02-19 07:00:00 0.1 0 Calma 2 Sudoeste 0 -- -- 90
2021-02-19 06:00:00 0.9 0 Calma 0 Calma 0 -- -- 89
2021-02-19 05:00:00 1.2 0 Calma 2 Norte 0 -- -- 88
2021-02-19 04:00:00 1.9 0 Calma 2 Noroeste 0 -- -- 86
2021-02-19 03:00:00 2.6 0 Calma 2 Este 0 -- -- 83
2021-02-19 02:00:00 3.5 0 Calma 2 Noroeste 0 -- -- 80
2021-02-19 01:00:00 4.8 0 Calma 3 Oeste 0 -- -- 75
2021-02-19 00:00:00 6 0 Calma 3 Sudeste 0 -- -- 69
2021-02-18 23:00:00 7.7 0 Calma 2 Sudeste 0 -- -- 63
2021-02-18 22:00:00 9.6 0 Calma 4 Noroeste 0 -- -- 55
2021-02-18 21:00:00 11.6 0 Calma 3 Norte 0 -- -- 49
2021-02-18 20:00:00 13.6 0 Calma 8 Sudoeste 0 -- -- 46
2021-02-18 19:00:00 17.5 4 Sudoeste 14 Sudoeste 0 -- -- 34
2021-02-18 18:00:00 19.6 5 Noroeste 18 Noroeste 0 -- -- 31
2021-02-18 17:00:00 21.1 10 Noroeste 26 Noroeste 0 -- -- 29
2021-02-18 16:00:00 21.3 10 Noroeste 34 Noroeste 0 -- -- 32
2021-02-18 15:00:00 20.8 10 Oeste 23 Oeste 0 -- -- 37
2021-02-18 14:00:00 18.1 3 Oeste 12 Norte 0 -- -- 51
2021-02-18 13:00:00 14.6 4 Norte 12 Norte 0 -- -- 58
2021-02-18 12:00:00 10.6 5 Nordeste 13 Norte 0 -- -- 74
2021-02-18 11:00:00 6.5 0 Calma 9 Norte 0 -- -- 96
2021-02-18 10:00:00 3.4 2 Norte 5 Sudeste 0 -- -- 97
2021-02-18 09:00:00 2.4 0 Calma 3 Oeste 0 -- -- 96
2021-02-18 08:00:00 2.2 2 Este 3 Este 0 -- -- 95
2021-02-18 07:00:00 2.5 0 Calma 5 Este 0 -- -- 95
2021-02-18 06:00:00 3 0 Calma 3 Este 0 -- -- 95
2021-02-18 05:00:00 3.4 0 Calma 2 Este 0 -- -- 94
2021-02-18 04:00:00 3.7 0 Calma 3 Sudeste 0 -- -- 93
2021-02-18 03:00:00 3.8 0 Calma 2 Este 0 -- -- 93
2021-02-18 02:00:00 4.4 0 Calma 0 Calma 0 -- -- 92
2021-02-18 01:00:00 5.1 0 Calma 2 Norte 0 -- -- 91
2021-02-18 00:00:00 6.1 0 Calma 2 Noroeste 0 -- -- 90
2021-02-17 23:00:00 7 0 Calma 2 Sudeste 0 -- -- 87
2021-02-17 22:00:00 8.4 0 Calma 5 Sudeste 0 -- -- 82
2021-02-17 21:00:00 10.8 0 Calma 8 Noroeste 0 -- -- 75
2021-02-17 20:00:00 14.3 5 Noroeste 12 Noroeste 0 -- -- 66
2021-02-17 19:00:00 16.6 8 Noroeste 16 Noroeste 0 -- -- 58
2021-02-17 18:00:00 18.9 8 Noroeste 12 Noroeste 0 -- -- 49
2021-02-17 17:00:00 22 5 Norte 11 Nordeste 0 -- -- 33
2021-02-17 16:00:00 22 4 Noroeste 10 Norte 0 -- -- 35
2021-02-17 15:00:00 20.3 5 Nordeste 11 Norte 0 -- -- 38
2021-02-17 14:00:00 18 4 Noroeste 9 Norte 0 -- -- 47
2021-02-17 13:00:00 15.4 3 Noroeste 9 Nordeste 0 -- -- 54
2021-02-17 12:00:00 11.9 2 Oeste 5 Este 0 -- -- 60
2021-02-17 11:00:00 8.6 0 Calma 5 Este 0 -- -- 73
2021-02-17 10:00:00 4.7 0 Calma 3 Este 0 -- -- 90
2021-02-17 09:00:00 1.2 0 Calma 2 Sudeste 0 -- -- 95
2021-02-17 08:00:00 -0.4 0 Calma 2 Sudoeste 0 -- -- 94
2021-02-17 07:00:00 0 0 Calma 2 Sudeste 0 -- -- 93
2021-02-17 06:00:00 0.4 0 Calma 2 Noroeste 0 -- -- 94
2021-02-17 05:00:00 1.1 0 Calma 2 Sudoeste 0 -- -- 92
2021-02-17 04:00:00 1.9 0 Calma 3 Sudoeste 0 -- -- 92
2021-02-17 03:00:00 2.5 0 Calma 2 Sudoeste 0 -- -- 90
2021-02-17 02:00:00 3.3 0 Calma 2 Norte 0 -- -- 89
2021-02-17 01:00:00 4.1 0 Calma 2 Sudeste 0 -- -- 86
2021-02-17 00:00:00 5 0 Calma 2 Sudeste 0 -- -- 83
2021-02-16 23:00:00 6 0 Calma 2 Sudoeste 0 -- -- 79
2021-02-16 22:00:00 7.4 0 Calma 3 Norte 0 -- -- 75
2021-02-16 21:00:00 8.6 0 Calma 4 Noroeste 0 -- -- 71
2021-02-16 20:00:00 10.4 0 Calma 2 Sudoeste 0 -- -- 66
2021-02-16 19:00:00 12.8 0 Calma 4 Oeste 0 -- -- 57
2021-02-16 18:00:00 16.1 2 Sudoeste 11 Noroeste 0 -- -- 48
2021-02-16 17:00:00 20.3 4 Norte 19 Sur 0 -- -- 35
2021-02-16 16:00:00 20.3 5 Oeste 21 Norte 0 -- -- 33
2021-02-16 15:00:00 17.6 3 Norte 9 Este 0 -- -- 51
2021-02-16 14:00:00 14.3 2 Oeste 11 Nordeste 0 -- -- 62
2021-02-16 13:00:00 11.2 5 Norte 13 Nordeste 0 -- -- 68
2021-02-16 12:00:00 9.1 5 Norte 14 Nordeste 0 -- -- 75
2021-02-16 11:00:00 7.3 5 Nordeste 9 Nordeste 0 -- -- 82
2021-02-16 10:00:00 4.7 3 Sudeste 8 Sudoeste 0 -- -- 97
2021-02-16 09:00:00 1.8 0 Calma 4 Noroeste 0 -- -- 96
2021-02-16 08:00:00 1.2 0 Calma 5 Noroeste 0 -- -- 96
2021-02-16 07:00:00 0.9 5 Noroeste 12 Norte 0 -- -- 95
2021-02-16 06:00:00 1 0 Calma 0 Calma 0 -- -- 94
2021-02-16 05:00:00 1.5 0 Calma 3 Sudeste 0 -- -- 94
2021-02-16 04:00:00 1.9 0 Calma 2 Sudeste 0 -- -- 93
2021-02-16 03:00:00 2.9 0 Calma 2 Sudeste 0 -- -- 92
2021-02-16 02:00:00 3.9 0 Calma 6 Noroeste 0 -- -- 91
2021-02-16 01:00:00 5 0 Calma 3 Norte 0 -- -- 90
2021-02-16 00:00:00 6.2 0 Calma 5 Norte 0 -- -- 87
2021-02-15 23:00:00 7.1 0 Calma 4 Sur 0 -- -- 87
2021-02-15 22:00:00 7.5 0 Calma 3 Sudoeste 0 -- -- 83
2021-02-15 21:00:00 9.5 0 Calma 9 Sur 0 -- -- 76
2021-02-15 20:00:00 11.5 2 Sur 10 Sur 0 -- -- 68
2021-02-15 19:00:00 12.5 7 Sur 18 Sudeste 0 -- -- 63
2021-02-15 18:00:00 13.3 5 Sudeste 21 Este 0 -- -- 61
2021-02-15 17:00:00 14.1 6 Sudeste 21 Sudeste 0 -- -- 59
2021-02-15 16:00:00 13.7 9 Sudeste 22 Sudeste 0 -- -- 62
2021-02-15 15:00:00 14 9 Sudeste 19 Sur 0 -- -- 61
2021-02-15 14:00:00 13.7 5 Este 12 Este 0 -- -- 62
2021-02-15 13:00:00 13 3 Norte 12 Este 0 -- -- 71
2021-02-15 12:00:00 12.1 4 Este 8 Este 0 -- -- 76
2021-02-15 11:00:00 11.1 4 Norte 10 Noroeste 0 -- -- 82
2021-02-15 10:00:00 10.1 6 Norte 9 Norte 0 -- -- 90
2021-02-15 09:00:00 8.6 0 Calma -- -- 0 -- -- 94
2021-02-15 08:00:00 8 0 Calma -- -- 0 -- -- 94
2021-02-15 07:00:00 8 0 Calma -- -- 0.2 -- -- 93
2021-02-15 06:00:00 7.9 0 Calma -- -- 0 -- -- 90
2021-02-15 05:00:00 7.7 0 Calma -- -- 0 -- -- 90
2021-02-15 04:00:00 7.4 0 Calma -- -- 0 -- -- 91
2021-02-15 03:00:00 6.9 0 Calma -- -- 0 -- -- 92
2021-02-15 02:00:00 6.5 0 Calma -- -- 0 -- -- 90
2021-02-15 01:00:00 7.1 0 Calma 2 Norte 0 -- -- 87
2021-02-15 00:00:00 8.9 0 Calma 5 Norte 0 -- -- 83
2021-02-14 23:00:00 10.2 4 Noroeste 9 Norte 0 -- -- 82
2021-02-14 22:00:00 10.1 4 Norte 12 Norte 0 -- -- 79
2021-02-14 21:00:00 10.9 4 Norte 10 Norte 0 -- -- 74
2021-02-14 20:00:00 11.4 2 Sudeste 8 Norte 0 -- -- 73
2021-02-14 19:00:00 12.4 3 Este 13 Este 0 -- -- 68
2021-02-14 18:00:00 13.4 6 Sudeste 15 Nordeste 0 -- -- 63
2021-02-14 17:00:00 14.2 10 Norte 23 Norte 0 -- -- 63
2021-02-14 16:00:00 15.4 9 Este 20 Nordeste 0 -- -- 54
2021-02-14 15:00:00 14.3 8 Norte 25 Norte 0 -- -- 61
2021-02-14 14:00:00 15 5 Norte 21 Sudeste 0 -- -- 57
2021-02-14 13:00:00 15.2 9 Este 22 Norte 0 -- -- 56
2021-02-14 12:00:00 12.8 9 Nordeste 17 Nordeste 0 -- -- 67
2021-02-14 11:00:00 10 2 Este 5 Sudeste 0 -- -- 69
2021-02-14 10:00:00 6 2 Este 4 Sudeste 0 -- -- 81
2021-02-14 09:00:00 2.1 0 Calma 2 Sudeste 0 -- -- 94
2021-02-14 08:00:00 0.7 0 Calma 0 Calma 0 -- -- 93
2021-02-14 07:00:00 1 0 Calma 2 Sur 0 -- -- 92
2021-02-14 06:00:00 1.4 0 Calma 2 Sudeste 0 -- -- 92
2021-02-14 05:00:00 2.1 0 Calma 3 Este 0 -- -- 91
2021-02-14 04:00:00 2.8 0 Calma 3 Este 0 -- -- 88
2021-02-14 03:00:00 3.9 0 Calma 2 Oeste 0 -- -- 85
2021-02-14 02:00:00 4.9 0 Calma 3 Sudeste 0 -- -- 82
2021-02-14 01:00:00 6.4 0 Calma 3 Oeste 0 -- -- 76
2021-02-14 00:00:00 8 0 Calma 15 Oeste 0 -- -- 70
2021-02-13 23:00:00 9 4 Noroeste 10 Oeste 0 -- -- 67
2021-02-13 22:00:00 10.5 3 Noroeste 10 Sudeste 0 -- -- 62
2021-02-13 21:00:00 13.9 5 Sudeste 22 Noroeste 0 -- -- 50
2021-02-13 20:00:00 15.5 9 Oeste 32 Oeste 0 -- -- 43
2021-02-13 19:00:00 15.9 12 Oeste 34 Noroeste 0 -- -- 40
2021-02-13 18:00:00 16.3 7 Noroeste 26 Oeste 0 -- -- 37
2021-02-13 17:00:00 17.7 8 Noroeste 24 Noroeste 0 -- -- 38
2021-02-13 16:00:00 17.4 7 Norte 33 Noroeste 0 -- -- 44
2021-02-13 15:00:00 17.5 14 Noroeste 36 Noroeste 0 -- -- 44
2021-02-13 14:00:00 16.1 8 Sudeste 35 Noroeste 0 -- -- 55
2021-02-13 13:00:00 15.6 10 Noroeste 31 Sudoeste 0 -- -- 54
2021-02-13 08:00:00 -- -- -- -- -- -- -- -- --
2021-02-13 07:00:00 -- -- -- -- -- -- -- -- --
2021-02-13 06:00:00 -- -- -- -- -- -- -- -- --
2021-02-13 05:00:00 10.1 9 Sudoeste 33 Sudoeste 0 -- -- 67
2021-02-13 04:00:00 10.2 16 Sudoeste 39 Sudoeste 0 -- -- 67
2021-02-13 03:00:00 10.8 14 Sudoeste 33 Sudoeste 0 -- -- 64
2021-02-13 02:00:00 10.6 11 Oeste 33 Sudoeste 0 -- -- 66
2021-02-13 01:00:00 11.2 12 Sudoeste 24 Oeste 0 -- -- 64
2021-02-13 00:00:00 11.6 8 Sudoeste 22 Sudoeste 0 -- -- 63
2021-02-12 23:00:00 12.6 6 Oeste 22 Oeste 0 -- -- 59
2021-02-12 22:00:00 12.9 4 Sur 30 Oeste 0 -- -- 60
2021-02-12 21:00:00 14 15 Oeste 44 Noroeste 0 -- -- 55
2021-02-12 20:00:00 14.4 16 Oeste 37 Noroeste 0 -- -- 56
2021-02-12 19:00:00 14.8 13 Noroeste 36 Noroeste 0 -- -- 54
2021-02-12 18:00:00 15.9 11 Oeste 39 Oeste 0 -- -- 49
2021-02-12 17:00:00 16.7 18 Noroeste 47 Norte 0 -- -- 46
2021-02-12 16:00:00 16.7 17 Noroeste 40 Noroeste 0 -- -- 45
2021-02-12 15:00:00 16.4 11 Noroeste 43 Noroeste 0 -- -- 48
2021-02-12 14:00:00 16.3 16 Noroeste 43 Noroeste 0 -- -- 51
2021-02-12 13:00:00 16.1 16 Noroeste 45 Norte 0.2 -- -- 55
2021-02-12 12:00:00 13.3 5 Sur 43 Norte 0.4 -- -- 79
2021-02-12 11:00:00 16.2 10 Noroeste 45 Noroeste 0 -- -- 66
2021-02-12 10:00:00 15.8 13 Noroeste 35 Oeste 0 -- -- 67
2021-02-12 09:00:00 14.6 10 Noroeste 28 Noroeste 0 -- -- 72
2021-02-12 08:00:00 13.8 5 Sudeste 27 Noroeste 0 -- -- 76
2021-02-12 07:00:00 11.7 4 Este 26 Norte 0 -- -- 84
2021-02-12 06:00:00 12.3 4 Este 28 Noroeste 0 -- -- 84
2021-02-12 05:00:00 9.5 2 Sudoeste 6 Sudeste 0 -- -- 93
2021-02-12 04:00:00 9.7 0 Calma 5 Sudeste 0 -- -- 92
2021-02-12 03:00:00 9.8 0 Calma 8 Nordeste 0 -- -- 91
2021-02-12 02:00:00 9.6 0 Calma 3 Sudoeste 0 -- -- 92
2021-02-12 01:00:00 9.7 0 Calma 3 Oeste 0 -- -- 92
2021-02-12 00:00:00 9.9 0 Calma 4 Sudeste 0 -- -- 90
2021-02-11 23:00:00 10.7 0 Calma 2 Sudoeste 0 -- -- 88
2021-02-11 22:00:00 11.2 0 Calma 3 Norte 0 -- -- 86
2021-02-11 21:00:00 12 0 Calma 4 Oeste 0 -- -- 83
2021-02-11 20:00:00 12.9 0 Calma 6 Sudoeste 0 -- -- 80
2021-02-11 19:00:00 13.7 3 Sur 6 Sudoeste 0 -- -- 77
2021-02-11 18:00:00 15.3 2 Sur 12 Sudeste 0 -- -- 72
2021-02-11 17:00:00 16.2 3 Sudoeste 28 Noroeste 0 -- -- 66
2021-02-11 16:00:00 16.7 6 Norte 34 Norte 0 -- -- 67
2021-02-11 15:00:00 16.5 9 Noroeste 28 Norte 0 -- -- 65
2021-02-11 14:00:00 15.6 5 Sur 16 Sudoeste 0 -- -- 71
2021-02-11 13:00:00 14 9 Sur 17 Sudoeste 0 -- -- 77
2021-02-11 12:00:00 13.7 9 Noroeste 33 Oeste 0 -- -- 76
2021-02-11 11:00:00 12.6 7 Noroeste 18 Noroeste 0 -- -- 75
2021-02-11 10:00:00 10.8 5 Norte 33 Noroeste 0 -- -- 79
2021-02-11 09:00:00 10.9 8 Noroeste 22 Noroeste 0 -- -- 77
2021-02-11 08:00:00 10.4 11 Noroeste 30 Noroeste 0 -- -- 81
2021-02-11 07:00:00 9.9 11 Norte 22 Norte 0 -- -- 77
2021-02-11 06:00:00 10.8 5 Oeste 31 Noroeste 0 -- -- 75
2021-02-11 05:00:00 8.7 4 Este 14 Este 0 -- -- 83
2021-02-11 04:00:00 9.3 3 Este 19 Sudoeste 0 -- -- 75
2021-02-11 03:00:00 10.9 8 Este 33 Noroeste 0 -- -- 70
2021-02-11 02:00:00 11.7 11 Noroeste 31 Norte 0 -- -- 66
2021-02-11 01:00:00 12.2 15 Noroeste 32 Noroeste 0 -- -- 63
2021-02-11 00:00:00 10 3 Sudeste 18 Noroeste 0 -- -- 70
2021-02-10 23:00:00 7.1 2 Sur 8 Este 0 -- -- 80
2021-02-10 22:00:00 7.1 2 Sudeste 6 Noroeste 0 -- -- 78
2021-02-10 21:00:00 7.9 0 Calma 4 Norte 0 -- -- 74
2021-02-10 20:00:00 10.5 0 Calma 13 Sudoeste 0 -- -- 63
2021-02-10 19:00:00 12.3 6 Oeste 12 Noroeste 0 -- -- 54
2021-02-10 18:00:00 14.7 8 Noroeste 35 Noroeste 0 -- -- 46
2021-02-10 17:00:00 16.2 9 Oeste 42 Noroeste 0 -- -- 43
2021-02-10 16:00:00 16 17 Oeste 50 Noroeste 0 -- -- 41
2021-02-10 15:00:00 15.7 18 Noroeste 53 Noroeste 0 -- -- 45
2021-02-10 14:00:00 15.2 21 Noroeste 59 Noroeste 0 -- -- 46
2021-02-10 13:00:00 14.4 20 Noroeste 41 Noroeste 0 -- -- 55
2021-02-10 12:00:00 14.2 17 Noroeste 50 Noroeste 0 -- -- 60
2021-02-10 11:00:00 13 10 Noroeste 26 Norte 0 -- -- 66
2021-02-10 10:00:00 11.5 11 Noroeste 34 Noroeste 0.4 -- -- 73
2021-02-10 09:00:00 11.6 14 Noroeste 36 Oeste 0 -- -- 71
2021-02-10 08:00:00 11.6 9 Nordeste 37 Sudoeste 0 -- -- 64
2021-02-10 07:00:00 11.5 8 Este 31 Norte 0 -- -- 62
2021-02-10 06:00:00 11.3 13 Norte 36 Oeste 0.2 -- -- 59
2021-02-10 05:00:00 10.3 14 Noroeste 36 Noroeste 0.4 -- -- 75
2021-02-10 04:00:00 10.4 17 Noroeste 37 Noroeste 1.4 -- -- 81
2021-02-10 03:00:00 11.7 10 Noroeste 32 Oeste 0.2 -- -- 71
2021-02-10 02:00:00 12.1 12 Noroeste 44 Oeste 0 -- -- 71
2021-02-10 01:00:00 12.4 11 Noroeste 29 Noroeste 0 -- -- 68
2021-02-10 00:00:00 12.8 8 Noroeste 39 Noroeste 0 -- -- 70
2021-02-09 23:00:00 12.1 12 Norte 35 Norte 0 -- -- 77
2021-02-09 22:00:00 11.8 10 Noroeste 28 Noroeste 0 -- -- 80
2021-02-09 21:00:00 11.3 8 Oeste 35 Norte 0.2 -- -- 84
2021-02-09 20:00:00 11.1 10 Norte 27 Norte 2.4 -- -- 87
2021-02-09 19:00:00 14.1 7 Norte 29 Sudoeste 0.2 -- -- 67
2021-02-09 18:00:00 14.3 8 Nordeste 32 Norte 0 -- -- 69
2021-02-09 17:00:00 16.3 14 Sudeste 33 Sudeste 0 -- -- 53
2021-02-09 16:00:00 16.6 16 Sur 41 Sur 0 -- -- 49
2021-02-09 15:00:00 15.6 12 Sudeste 46 Sudoeste 0 -- -- 54
2021-02-09 14:00:00 14.3 15 Sur 37 Sur 0 -- -- 55
2021-02-09 13:00:00 13.5 10 Este 28 Sudoeste 0 -- -- 57
2021-02-09 12:00:00 13.2 12 Sur 31 Nordeste 0 -- -- 64
2021-02-09 11:00:00 12.8 8 Sudeste 18 Sudeste 0 -- -- 63
2021-02-09 10:00:00 10.8 3 Este 18 Norte 0 -- -- 70
2021-02-09 09:00:00 9.3 3 Sur 10 Este 0 -- -- 76
2021-02-09 08:00:00 8.9 3 Sudeste 18 Sur 0 -- -- 76
2021-02-09 07:00:00 9.3 5 Sur 26 Noroeste 0 -- -- 75
2021-02-09 06:00:00 9.7 5 Noroeste 18 Oeste 0 -- -- 71
2021-02-09 05:00:00 9.5 8 Noroeste 23 Norte 0 -- -- 70
2021-02-09 04:00:00 9.5 8 Norte 23 Norte 0 -- -- 72
2021-02-09 03:00:00 9.7 12 Noroeste 38 Noroeste 0 -- -- 70
2021-02-09 02:00:00 9.8 17 Noroeste 48 Noroeste 0 -- -- 69
2021-02-09 01:00:00 10.1 25 Noroeste 53 Oeste 0 -- -- 67
2021-02-09 00:00:00 10.5 17 Noroeste 52 Norte 0 -- -- 65
2021-02-08 23:00:00 10.6 23 Noroeste 48 Noroeste 0 -- -- 67
2021-02-08 22:00:00 10.5 15 Noroeste 36 Noroeste 0 -- -- 68
2021-02-08 21:00:00 10.7 15 Noroeste 31 Noroeste 0 -- -- 68
2021-02-08 20:00:00 10.4 5 Norte 19 Norte 0 -- -- 70
2021-02-08 19:00:00 10.9 12 Noroeste 36 Noroeste 0 -- -- 69
2021-02-08 18:00:00 10.5 13 Noroeste 42 Noroeste 0 -- -- 71
2021-02-08 17:00:00 9.2 15 Noroeste 35 Noroeste 0.6 -- -- 79
2021-02-08 16:00:00 8.6 7 Oeste 53 Noroeste 2 -- -- 83
2021-02-08 15:00:00 13.3 24 Noroeste 59 Oeste 0 -- -- 54
2021-02-08 14:00:00 14 19 Noroeste 53 Noroeste 0 -- -- 54
2021-02-08 13:00:00 12.9 17 Noroeste 43 Noroeste 0 -- -- 61
2021-02-08 12:00:00 12.1 17 Noroeste 42 Noroeste 0 -- -- 64
2021-02-08 11:00:00 11.9 17 Noroeste 59 Noroeste 0 -- -- 68
2021-02-08 10:00:00 10.3 7 Este 25 Nordeste 1.4 -- -- 76
2021-02-08 09:00:00 8.6 3 Oeste 8 Noroeste 1.6 -- -- 89
2021-02-08 08:00:00 9.3 2 Sur 8 Sudeste 0 -- -- 74
2021-02-08 07:00:00 9.9 4 Sudeste 14 Nordeste 0 -- -- 72
2021-02-08 06:00:00 9.6 2 Sudeste 20 Sudeste 0 -- -- 72
2021-02-08 05:00:00 9.5 5 Nordeste 22 Sudeste 0 -- -- 70
2021-02-08 04:00:00 9.3 6 Noroeste 38 Noroeste 0 -- -- 70
2021-02-08 03:00:00 9.4 16 Noroeste 61 Noroeste 0 -- -- 68
2021-02-08 02:00:00 9 30 Noroeste 57 Noroeste 0 -- -- 68
2021-02-08 01:00:00 9 12 Noroeste 38 Noroeste 0 -- -- 67
2021-02-08 00:00:00 9.1 20 Noroeste 51 Noroeste 0 -- -- 65
2021-02-07 23:00:00 9.8 19 Noroeste 44 Noroeste 0 -- -- 60
2021-02-07 22:00:00 10.8 18 Noroeste 53 Noroeste 0 -- -- 59
2021-02-07 21:00:00 11.1 23 Noroeste 48 Noroeste 0 -- -- 57
2021-02-07 20:00:00 11.6 15 Noroeste 39 Noroeste 0 -- -- 57
2021-02-07 19:00:00 11.5 7 Norte 26 Noroeste 0 -- -- 63
2021-02-07 18:00:00 12.3 12 Norte 38 Norte 0 -- -- 54
2021-02-07 17:00:00 12.5 9 Noroeste 32 Noroeste 0 -- -- 56
2021-02-07 16:00:00 13.3 12 Noroeste 37 Noroeste 0 -- -- 49
2021-02-07 15:00:00 13.7 15 Noroeste 42 Noroeste 0 -- -- 47
2021-02-07 14:00:00 13.7 15 Noroeste 42 Noroeste 0 -- -- 48
2021-02-07 13:00:00 13.5 14 Noroeste 37 Noroeste 0 -- -- 49
2021-02-07 12:00:00 13 11 Noroeste 26 Noroeste 0 -- -- 50
2021-02-07 11:00:00 11.6 9 Oeste 24 Oeste 0 -- -- 60
2021-02-07 10:00:00 10.3 12 Noroeste 26 Noroeste 0 -- -- 73
2021-02-07 09:00:00 10.1 3 Noroeste 14 Noroeste 0 -- -- 77
2021-02-07 08:00:00 9.7 3 Nordeste 13 Nordeste 0 -- -- 79
2021-02-07 07:00:00 10.1 4 Sudeste 7 Sudeste 0 -- -- 79
2021-02-07 06:00:00 10.1 3 Sur 11 Sur 0 -- -- 79
2021-02-07 05:00:00 10.1 4 Nordeste 23 Sudoeste 0 -- -- 78
2021-02-07 04:00:00 9.6 2 Sur 9 Noroeste 0 -- -- 80
2021-02-07 03:00:00 9.8 2 Este 12 Sur 0 -- -- 80
2021-02-07 02:00:00 10 2 Sur 16 Norte 0 -- -- 79
2021-02-07 01:00:00 10.4 5 Noroeste 19 Oeste 0 -- -- 77
2021-02-07 00:00:00 9.6 2 Este 10 Sur 0 -- -- 80
2021-02-06 23:00:00 8.9 0 Calma 9 Oeste 0 -- -- 81
2021-02-06 22:00:00 10.1 4 Noroeste 18 Norte 0 -- -- 77
2021-02-06 21:00:00 10.9 4 Sur 21 Noroeste 0 -- -- 73
2021-02-06 20:00:00 10.4 3 Sur 25 Oeste 0 -- -- 79
2021-02-06 19:00:00 11.6 13 Norte 30 Norte 0 -- -- 70
2021-02-06 18:00:00 13.6 9 Noroeste 27 Noroeste 0 -- -- 56
2021-02-06 17:00:00 14.2 12 Noroeste 35 Noroeste 0 -- -- 52
2021-02-06 16:00:00 16.1 6 Nordeste 35 Noroeste 0 -- -- 47
2021-02-06 15:00:00 15.1 8 Sur 34 Norte 0 -- -- 52
2021-02-06 14:00:00 15.7 7 Norte 29 Norte 0 -- -- 58
2021-02-06 13:00:00 13.7 6 Nordeste 12 Nordeste 0 -- -- 73
2021-02-06 12:00:00 11.8 3 Este 8 Este 0 -- -- 80
2021-02-06 11:00:00 9 3 Sudeste 6 Sudeste 0 -- -- 91
2021-02-06 10:00:00 8 0 Calma 3 Sur 0 -- -- 95
2021-02-06 09:00:00 7.4 0 Calma 3 Oeste 0 -- -- 96
2021-02-06 08:00:00 6.8 0 Calma 6 Sudeste 0 -- -- 95
2021-02-06 07:00:00 6.8 0 Calma 5 Noroeste 0 -- -- 94
2021-02-06 06:00:00 7.4 3 Noroeste 5 Oeste 0 -- -- 94
2021-02-06 05:00:00 7 2 Noroeste 5 Sudoeste 0 -- -- 93
2021-02-06 04:00:00 7.8 0 Calma 3 Sudoeste 0 -- -- 91
2021-02-06 03:00:00 9.1 3 Oeste 4 Oeste 0 -- -- 89
2021-02-06 02:00:00 10.3 0 Calma 9 Oeste 0 -- -- 87
2021-02-06 01:00:00 10.6 5 Sudoeste 12 Oeste 0 -- -- 86
2021-02-06 00:00:00 10.8 4 Norte 13 Noroeste 0 -- -- 85
2021-02-05 23:00:00 11 4 Sur 11 Noroeste 0 -- -- 82
2021-02-05 22:00:00 10.5 2 Nordeste 8 Nordeste 0 -- -- 84
2021-02-05 21:00:00 10.9 0 Calma 14 Este 0 -- -- 81
2021-02-05 20:00:00 11.3 3 Este 13 Sudeste 0 -- -- 80
2021-02-05 19:00:00 11.4 3 Sudeste 21 Este 0 -- -- 80
2021-02-05 18:00:00 11.7 6 Este 17 Este 0 -- -- 80
2021-02-05 17:00:00 12.1 10 Este 22 Nordeste 0 -- -- 78
2021-02-05 16:00:00 12.2 9 Este 25 Este 0 -- -- 78
2021-02-05 15:00:00 12.6 6 Nordeste 29 Nordeste 0 -- -- 77
2021-02-05 14:00:00 12.9 9 Este 21 Este 0 -- -- 75
2021-02-05 13:00:00 13.1 5 Sudeste 20 Sudeste 0 -- -- 76
2021-02-05 12:00:00 12.3 8 Sudeste 15 Sudeste 0 -- -- 78
2021-02-05 11:00:00 11.7 6 Sudeste 17 Sudeste 0 -- -- 80
2021-02-05 10:00:00 11.1 0 Calma 13 Sudeste 0 -- -- 82
2021-02-05 09:00:00 10.4 5 Sudeste 18 Sudeste 0 -- -- 84
2021-02-05 08:00:00 9.7 3 Sur 10 Sudeste 0 -- -- 87
2021-02-05 07:00:00 9.5 3 Sur 17 Nordeste 0 -- -- 90
2021-02-05 06:00:00 8.4 0 Calma 2 Nordeste 0 -- -- 94
2021-02-05 05:00:00 7.8 0 Calma 4 Norte 0 -- -- 93
2021-02-05 04:00:00 7.8 0 Calma 9 Noroeste 0 -- -- 91
2021-02-05 03:00:00 9.1 5 Norte 12 Noroeste 0 -- -- 91
2021-02-05 02:00:00 7 0 Calma 4 Noroeste 0 -- -- 93
2021-02-05 01:00:00 7.6 0 Calma 5 Norte 0 -- -- 92
2021-02-05 00:00:00 8.7 0 Calma 2 Sudeste 0 -- -- 87
2021-02-04 23:00:00 9.5 0 Calma 4 Norte 0 -- -- 86
2021-02-04 22:00:00 10.6 0 Calma 5 Noroeste 0 -- -- 81
2021-02-04 21:00:00 11.9 4 Noroeste 17 Noroeste 0 -- -- 78
2021-02-04 20:00:00 12.6 12 Noroeste 18 Noroeste 0 -- -- 76
2021-02-04 19:00:00 13.4 11 Noroeste 21 Noroeste 0 -- -- 75
2021-02-04 18:00:00 14.8 11 Noroeste 24 Noroeste 0 -- -- 69
2021-02-04 17:00:00 16.7 11 Noroeste 18 Norte 0 -- -- 61
2021-02-04 16:00:00 17.6 11 Noroeste 19 Norte 0 -- -- 57
2021-02-04 15:00:00 19.5 6 Norte 20 Noroeste 0 -- -- 51
2021-02-04 14:00:00 19.2 6 Norte 13 Norte 0 -- -- 52
2021-02-04 13:00:00 16.9 9 Noroeste 17 Norte 0 -- -- 59
2021-02-04 12:00:00 13.5 5 Norte 9 Noroeste 0 -- -- 70
2021-02-04 11:00:00 10.1 5 Norte 12 Nordeste 0 -- -- 82
2021-02-04 10:00:00 7.5 6 Sudoeste 10 Sudoeste 0 -- -- 95
2021-02-04 09:00:00 5.4 0 Calma 10 Sudeste 0 -- -- 95
2021-02-04 08:00:00 5.2 0 Calma 2 Noroeste 0 -- -- 95
2021-02-04 07:00:00 5.5 0 Calma 3 Sudeste 0 -- -- 94
2021-02-04 06:00:00 5.7 0 Calma 2 Sudeste 0 -- -- 94
2021-02-04 05:00:00 5.9 0 Calma 2 Norte 0 -- -- 94
2021-02-04 04:00:00 6.2 0 Calma 3 Sur 0 -- -- 93
2021-02-04 03:00:00 6.4 0 Calma 5 Sudeste 0 -- -- 93
2021-02-04 02:00:00 7 0 Calma 3 Sudeste 0 -- -- 91
2021-02-04 01:00:00 7.7 0 Calma 4 Noroeste 0 -- -- 89
2021-02-04 00:00:00 8.5 0 Calma 5 Sudeste 0 -- -- 87
2021-02-03 23:00:00 9.4 0 Calma 4 Sudeste 0 -- -- 84
2021-02-03 22:00:00 10.3 0 Calma 4 Noroeste 0 -- -- 81
2021-02-03 21:00:00 11 0 Calma 4 Noroeste 0 -- -- 79
2021-02-03 20:00:00 11.7 2 Este 10 Sudoeste 0 -- -- 75
2021-02-03 19:00:00 12.9 0 Calma 5 Oeste 0 -- -- 71
2021-02-03 18:00:00 15.3 0 Calma 14 Oeste 0 -- -- 63
2021-02-03 17:00:00 16.7 6 Sur 15 Sur 0 -- -- 57
2021-02-03 16:00:00 16.9 5 Sur 26 Sur 0 -- -- 56
2021-02-03 15:00:00 16.7 6 Sudeste 27 Noroeste 0 -- -- 56
2021-02-03 14:00:00 16.5 7 Norte 21 Sur 0 -- -- 55
2021-02-03 13:00:00 15.2 9 Sur 20 Sur 0 -- -- 59
2021-02-03 12:00:00 14 7 Sur 17 Este 0 -- -- 60
2021-02-03 11:00:00 13.4 4 Sur 9 Sur 0 -- -- 64
2021-02-03 10:00:00 10.7 2 Nordeste 7 Noroeste 0 -- -- 75
2021-02-03 09:00:00 9.4 2 Norte 10 Sudeste 0 -- -- 78
2021-02-03 08:00:00 10.3 3 Sudeste 12 Nordeste 0 -- -- 73
2021-02-03 07:00:00 10.7 4 Oeste 18 Este 0 -- -- 72
2021-02-03 06:00:00 10.6 4 Este 13 Este 0 -- -- 74
2021-02-03 05:00:00 11.5 2 Este 18 Sudoeste 0 -- -- 69
2021-02-03 04:00:00 11.9 3 Nordeste 19 Norte 0 -- -- 69
2021-02-03 03:00:00 11.7 7 Norte 20 Norte 0 -- -- 70
2021-02-03 02:00:00 11.9 6 Norte 27 Noroeste 0 -- -- 71
2021-02-03 01:00:00 8.7 3 Norte 12 Sudoeste 0 -- -- 87
2021-02-03 00:00:00 8.1 0 Calma 5 Oeste 0 -- -- 86
2021-02-02 23:00:00 8.3 0 Calma 3 Noroeste 0 -- -- 85
2021-02-02 22:00:00 9 0 Calma 4 Noroeste 0 -- -- 82
2021-02-02 21:00:00 9.9 0 Calma 5 Noroeste 0 -- -- 78
2021-02-02 20:00:00 11.6 2 Oeste 15 Este 0 -- -- 73
2021-02-02 19:00:00 13.9 2 Noroeste 17 Norte 0 -- -- 65
2021-02-02 18:00:00 16.2 4 Noroeste 26 Nordeste 0 -- -- 57
2021-02-02 17:00:00 18 8 Noroeste 31 Noroeste 0 -- -- 52
2021-02-02 16:00:00 17.9 15 Noroeste 62 Norte 0 -- -- 52
2021-02-02 15:00:00 17.8 14 Noroeste 47 Oeste 0 -- -- 53
2021-02-02 14:00:00 17.6 14 Norte 43 Norte 0 -- -- 54
2021-02-02 13:00:00 16.4 13 Noroeste 35 Noroeste 0 -- -- 58
2021-02-02 12:00:00 14 7 Norte 36 Noroeste 0 -- -- 69
2021-02-02 11:00:00 12.5 9 Norte 29 Noroeste 0 -- -- 73
2021-02-02 10:00:00 12.4 5 Este 14 Este 0 -- -- 72
2021-02-02 09:00:00 11.7 6 Este 18 Nordeste 0 -- -- 74
2021-02-02 08:00:00 11.8 6 Sur 46 Noroeste 0 -- -- 73
2021-02-02 07:00:00 11.6 10 Norte 40 Noroeste 0 -- -- 73
2021-02-02 06:00:00 11.9 13 Norte 42 Noroeste 0 -- -- 71
2021-02-02 05:00:00 12.2 9 Norte 34 Noroeste 0 -- -- 71
2021-02-02 04:00:00 12.1 6 Norte 20 Oeste 0 -- -- 71
2021-02-02 03:00:00 12.2 10 Este 23 Este 0 -- -- 71
2021-02-02 02:00:00 12.3 9 Este 35 Noroeste 0 -- -- 71
2021-02-02 01:00:00 12.4 9 Noroeste 42 Noroeste 0 -- -- 71
2021-02-02 00:00:00 12.4 13 Noroeste 33 Noroeste 0 -- -- 71
2021-02-01 23:00:00 12.6 9 Norte 39 Noroeste 0 -- -- 70
2021-02-01 22:00:00 12.9 14 Norte 48 Noroeste 0 -- -- 68
2021-02-01 21:00:00 13.3 17 Noroeste 51 Oeste 0 -- -- 66
2021-02-01 20:00:00 14.3 19 Noroeste 47 Norte 0 -- -- 64
2021-02-01 19:00:00 15.5 21 Noroeste 46 Noroeste 0 -- -- 61
2021-02-01 18:00:00 16.4 18 Noroeste 44 Noroeste 0 -- -- 57
2021-02-01 17:00:00 17.5 16 Noroeste 56 Sudoeste 0 -- -- 55
2021-02-01 16:00:00 18 18 Noroeste 57 Noroeste 0 -- -- 52
2021-02-01 15:00:00 17.8 24 Noroeste 66 Noroeste 0 -- -- 52
2021-02-01 14:00:00 17 33 Noroeste 87 Oeste 0 -- -- 54
2021-02-01 13:00:00 16.3 32 Noroeste 76 Noroeste 0 -- -- 56
2021-02-01 12:00:00 15.6 27 Noroeste 76 Noroeste 0 -- -- 57
2021-02-01 11:00:00 14.8 33 Noroeste 81 Noroeste 0 -- -- 60
2021-02-01 10:00:00 14.1 38 Noroeste 87 Noroeste 0 -- -- 63
2021-02-01 09:00:00 13.7 45 Noroeste 84 Noroeste 0 -- -- 64
2021-02-01 08:00:00 13.7 39 Noroeste 67 Noroeste 0 -- -- 65
2021-02-01 07:00:00 13.8 28 Noroeste 54 Noroeste 0 -- -- 66
2021-02-01 06:00:00 13.9 17 Noroeste 42 Noroeste 0 -- -- 67
2021-02-01 05:00:00 14.3 16 Noroeste 44 Noroeste 0 -- -- 67
2021-02-01 04:00:00 14.4 3 Sudeste 20 Este 0 -- -- 71
2021-02-01 03:00:00 14.6 7 Nordeste 32 Noroeste 0 -- -- 71
2021-02-01 02:00:00 14.8 10 Noroeste 42 Noroeste 0 -- -- 73
2021-02-01 01:00:00 15.2 14 Norte 44 Noroeste 0 -- -- 72
2021-02-01 00:00:00 15.1 18 Noroeste 59 Noroeste 0 -- -- 74